sensor_id;sensor_type;location;lat;lon;timestamp;temperature;humidity
10662;DHT22;5379;51.034;7.006;2023-11-22T00:01:51;8.40;99.90
10662;DHT22;5379;51.034;7.006;2023-11-22T00:04:19;8.50;99.90
10662;DHT22;5379;51.034;7.006;2023-11-22T00:06:46;8.40;99.90
10662;DHT22;5379;51.034;7.006;2023-11-22T00:09:13;8.40;99.90
10662;DHT22;5379;51.034;7.006;2023-11-22T00:11:42;8.50;99.90
10662;DHT22;5379;51.034;7.006;2023-11-22T00:14:09;8.50;99.90
10662;DHT22;5379;51.034;7.006;2023-11-22T00:16:35;8.50;99.90
10662;DHT22;5379;51.034;7.006;2023-11-22T00:19:06;8.50;99.90
10662;DHT22;5379;51.034;7.006;2023-11-22T00:21:33;8.50;99.90
10662;DHT22;5379;51.034;7.006;2023-11-22T00:24:01;8.60;99.90
10662;DHT22;5379;51.034;7.006;2023-11-22T00:26:29;8.60;99.90
10662;DHT22;5379;51.034;7.006;2023-11-22T00:28:59;8.60;99.90
10662;DHT22;5379;51.034;7.006;2023-11-22T00:31:26;8.60;99.90
10662;DHT22;5379;51.034;7.006;2023-11-22T00:33:52;8.60;99.90
10662;DHT22;5379;51.034;7.006;2023-11-22T00:36:19;8.70;99.90
10662;DHT22;5379;51.034;7.006;2023-11-22T00:38:46;8.70;99.90
10662;DHT22;5379;51.034;7.006;2023-11-22T00:41:13;8.60;99.90
10662;DHT22;5379;51.034;7.006;2023-11-22T00:43:41;8.50;99.90
10662;DHT22;5379;51.034;7.006;2023-11-22T00:46:09;8.40;99.90
10662;DHT22;5379;51.034;7.006;2023-11-22T00:51:03;8.40;99.90
10662;DHT22;5379;51.034;7.006;2023-11-22T00:53:34;8.40;99.90
10662;DHT22;5379;51.034;7.006;2023-11-22T00:56:01;8.40;99.90
10662;DHT22;5379;51.034;7.006;2023-11-22T00:58:28;8.50;99.90
10662;DHT22;5379;51.034;7.006;2023-11-22T05:30:54;6.80;99.90
10662;DHT22;5379;51.034;7.006;2023-11-22T05:35:49;6.90;99.90
10662;DHT22;5379;51.034;7.006;2023-11-22T05:38:15;6.80;99.90
10662;DHT22;5379;51.034;7.006;2023-11-22T05:40:42;6.80;99.90
10662;DHT22;5379;51.034;7.006;2023-11-22T05:45:36;6.70;99.90
10662;DHT22;5379;51.034;7.006;2023-11-22T05:48:05;6.80;99.90
10662;DHT22;5379;51.034;7.006;2023-11-22T05:50:32;6.60;99.90
10662;DHT22;5379;51.034;7.006;2023-11-22T05:52:58;6.50;99.90
10662;DHT22;5379;51.034;7.006;2023-11-22T05:55:25;7.20;99.90
10662;DHT22;5379;51.034;7.006;2023-11-22T06:00:20;6.60;99.90
10662;DHT22;5379;51.034;7.006;2023-11-22T06:05:16;6.80;99.90
10662;DHT22;5379;51.034;7.006;2023-11-22T06:07:42;6.80;99.90
10662;DHT22;5379;51.034;7.006;2023-11-22T06:10:09;6.50;99.90
10662;DHT22;5379;51.034;7.006;2023-11-22T06:12:38;6.40;99.90
10662;DHT22;5379;51.034;7.006;2023-11-22T06:15:06;6.30;99.90
10662;DHT22;5379;51.034;7.006;2023-11-22T06:17:33;6.40;99.90
10662;DHT22;5379;51.034;7.006;2023-11-22T06:20:00;6.40;99.90
10662;DHT22;5379;51.034;7.006;2023-11-22T06:22:30;6.30;99.90
10662;DHT22;5379;51.034;7.006;2023-11-22T06:24:57;6.70;99.90
10662;DHT22;5379;51.034;7.006;2023-11-22T06:27:24;6.30;99.90
10662;DHT22;5379;51.034;7.006;2023-11-22T06:29:51;6.40;99.90
10662;DHT22;5379;51.034;7.006;2023-11-22T06:32:18;6.30;99.90
10662;DHT22;5379;51.034;7.006;2023-11-22T06:34:45;6.40;99.90
10662;DHT22;5379;51.034;7.006;2023-11-22T06:37:12;6.40;99.90
10662;DHT22;5379;51.034;7.006;2023-11-22T06:39:40;6.40;99.90
10662;DHT22;5379;51.034;7.006;2023-11-22T06:44:34;6.30;99.90
10662;DHT22;5379;51.034;7.006;2023-11-22T06:47:00;6.20;99.90
10662;DHT22;5379;51.034;7.006;2023-11-22T06:49:27;6.20;99.90
10662;DHT22;5379;51.034;7.006;2023-11-22T06:54:21;6.00;99.90
10662;DHT22;5379;51.034;7.006;2023-11-22T06:56:50;5.90;99.90
10662;DHT22;5379;51.034;7.006;2023-11-22T06:59:17;5.80;99.90
10662;DHT22;5379;51.034;7.006;2023-11-22T07:04:11;5.80;99.90
10662;DHT22;5379;51.034;7.006;2023-11-22T07:06:38;5.80;99.90
10662;DHT22;5379;51.034;7.006;2023-11-22T07:14:04;5.70;99.90
10662;DHT22;5379;51.034;7.006;2023-11-22T07:16:31;5.80;99.90
10662;DHT22;5379;51.034;7.006;2023-11-22T07:18:59;7.00;99.90
10662;DHT22;5379;51.034;7.006;2023-11-22T07:23:52;5.90;99.90
10662;DHT22;5379;51.034;7.006;2023-11-22T07:31:16;5.80;99.90
10662;DHT22;5379;51.034;7.006;2023-11-22T07:33:43;5.70;99.90
10662;DHT22;5379;51.034;7.006;2023-11-22T07:38:40;5.70;99.90
10662;DHT22;5379;51.034;7.006;2023-11-22T07:41:08;5.70;99.90
10662;DHT22;5379;51.034;7.006;2023-11-22T07:43:36;5.70;99.90
10662;DHT22;5379;51.034;7.006;2023-11-22T07:46:05;5.90;99.90
10662;DHT22;5379;51.034;7.006;2023-11-22T07:48:35;5.90;99.90
10662;DHT22;5379;51.034;7.006;2023-11-22T07:51:03;6.00;99.90
10662;DHT22;5379;51.034;7.006;2023-11-22T07:56:00;6.00;99.90
10662;DHT22;5379;51.034;7.006;2023-11-22T08:00:57;5.90;99.90
10662;DHT22;5379;51.034;7.006;2023-11-22T08:03:25;6.00;99.90
10662;DHT22;5379;51.034;7.006;2023-11-22T08:05:53;6.00;99.90
10662;DHT22;5379;51.034;7.006;2023-11-22T08:08:21;6.40;99.90
10662;DHT22;5379;51.034;7.006;2023-11-22T08:10:48;6.20;99.90
10662;DHT22;5379;51.034;7.006;2023-11-22T08:13:17;6.30;99.90
10662;DHT22;5379;51.034;7.006;2023-11-22T08:15:45;6.30;99.90
10662;DHT22;5379;51.034;7.006;2023-11-22T08:18:13;6.30;99.90
10662;DHT22;5379;51.034;7.006;2023-11-22T08:20:41;6.30;99.90
10662;DHT22;5379;51.034;7.006;2023-11-22T08:23:10;6.40;99.90
10662;DHT22;5379;51.034;7.006;2023-11-22T08:25:38;6.50;99.90
10662;DHT22;5379;51.034;7.006;2023-11-22T08:28:05;6.30;99.90
10662;DHT22;5379;51.034;7.006;2023-11-22T08:30:33;6.30;99.90
10662;DHT22;5379;51.034;7.006;2023-11-22T08:35:28;6.50;99.90
10662;DHT22;5379;51.034;7.006;2023-11-22T08:40:25;6.60;99.90
10662;DHT22;5379;51.034;7.006;2023-11-22T08:45:19;6.50;99.90
10662;DHT22;5379;51.034;7.006;2023-11-22T08:47:46;6.50;99.90
10662;DHT22;5379;51.034;7.006;2023-11-22T08:52:41;6.60;99.90
10662;DHT22;5379;51.034;7.006;2023-11-22T08:57:41;6.80;99.90
10662;DHT22;5379;51.034;7.006;2023-11-22T09:00:09;6.90;99.90
10662;DHT22;5379;51.034;7.006;2023-11-22T09:02:36;7.00;99.90
10662;DHT22;5379;51.034;7.006;2023-11-22T09:05:05;7.00;99.90
10662;DHT22;5379;51.034;7.006;2023-11-22T09:07:33;7.00;99.90
10662;DHT22;5379;51.034;7.006;2023-11-22T09:10:01;7.00;99.90
10662;DHT22;5379;51.034;7.006;2023-11-22T09:12:35;7.20;99.90
10662;DHT22;5379;51.034;7.006;2023-11-22T09:15:04;7.30;99.90
10662;DHT22;5379;51.034;7.006;2023-11-22T09:17:34;7.30;99.90
10662;DHT22;5379;51.034;7.006;2023-11-22T09:20:01;7.20;99.90
10662;DHT22;5379;51.034;7.006;2023-11-22T09:22:28;8.20;99.90
10662;DHT22;5379;51.034;7.006;2023-11-22T09:24:55;7.30;99.90
10662;DHT22;5379;51.034;7.006;2023-11-22T09:32:20;7.20;99.90
10662;DHT22;5379;51.034;7.006;2023-11-22T09:34:49;7.30;99.90
10662;DHT22;5379;51.034;7.006;2023-11-22T09:37:15;7.20;99.90
10662;DHT22;5379;51.034;7.006;2023-11-22T09:39:42;7.30;99.90
10662;DHT22;5379;51.034;7.006;2023-11-22T09:42:10;7.30;99.90
10662;DHT22;5379;51.034;7.006;2023-11-22T09:44:38;7.60;99.90
10662;DHT22;5379;51.034;7.006;2023-11-22T09:47:05;7.60;99.90
10662;DHT22;5379;51.034;7.006;2023-11-22T09:49:34;7.60;99.90
10662;DHT22;5379;51.034;7.006;2023-11-22T09:52:04;7.60;99.90
10662;DHT22;5379;51.034;7.006;2023-11-22T09:54:35;7.90;99.90
10662;DHT22;5379;51.034;7.006;2023-11-22T09:57:03;8.20;99.90
10662;DHT22;5379;51.034;7.006;2023-11-22T09:59:35;7.80;99.90
10662;DHT22;5379;51.034;7.006;2023-11-22T10:02:02;7.60;99.90
10662;DHT22;5379;51.034;7.006;2023-11-22T10:04:33;7.70;99.90
10662;DHT22;5379;51.034;7.006;2023-11-22T10:07:00;7.80;99.90
10662;DHT22;5379;51.034;7.006;2023-11-22T10:09:27;7.80;99.90
10662;DHT22;5379;51.034;7.006;2023-11-22T10:11:58;7.80;99.90
10662;DHT22;5379;51.034;7.006;2023-11-22T10:14:25;7.80;99.90
10662;DHT22;5379;51.034;7.006;2023-11-22T10:16:58;7.90;99.90
10662;DHT22;5379;51.034;7.006;2023-11-22T10:19:26;8.10;99.90
10662;DHT22;5379;51.034;7.006;2023-11-22T10:22:04;8.10;99.90
10662;DHT22;5379;51.034;7.006;2023-11-22T10:24:31;8.40;99.90
10662;DHT22;5379;51.034;7.006;2023-11-22T10:26:59;8.20;99.70
10662;DHT22;5379;51.034;7.006;2023-11-22T10:29:26;8.30;99.90
10662;DHT22;5379;51.034;7.006;2023-11-22T10:31:53;8.30;99.90
10662;DHT22;5379;51.034;7.006;2023-11-22T10:34:20;8.30;99.70
10662;DHT22;5379;51.034;7.006;2023-11-22T10:36:47;8.30;99.90
10662;DHT22;5379;51.034;7.006;2023-11-22T10:39:18;8.40;99.90
10662;DHT22;5379;51.034;7.006;2023-11-22T10:41:45;8.80;99.90
10662;DHT22;5379;51.034;7.006;2023-11-22T10:44:12;8.50;99.90
10662;DHT22;5379;51.034;7.006;2023-11-22T10:46:41;8.60;99.90
10662;DHT22;5379;51.034;7.006;2023-11-22T10:49:07;8.50;99.90
10662;DHT22;5379;51.034;7.006;2023-11-22T10:51:38;8.50;99.90
10662;DHT22;5379;51.034;7.006;2023-11-22T10:54:06;8.60;99.90
10662;DHT22;5379;51.034;7.006;2023-11-22T10:56:38;8.70;99.90
10662;DHT22;5379;51.034;7.006;2023-11-22T10:59:10;8.80;99.90
10662;DHT22;5379;51.034;7.006;2023-11-22T11:01:44;9.00;99.90
10662;DHT22;5379;51.034;7.006;2023-11-22T11:04:23;9.00;99.90
10662;DHT22;5379;51.034;7.006;2023-11-22T11:06:53;8.90;99.90
10662;DHT22;5379;51.034;7.006;2023-11-22T11:09:22;9.00;99.80
10662;DHT22;5379;51.034;7.006;2023-11-22T11:11:54;9.00;98.60
10662;DHT22;5379;51.034;7.006;2023-11-22T11:14:23;9.00;99.40
10662;DHT22;5379;51.034;7.006;2023-11-22T11:16:51;9.30;98.90
10662;DHT22;5379;51.034;7.006;2023-11-22T11:19:20;9.20;99.10
10662;DHT22;5379;51.034;7.006;2023-11-22T11:21:47;9.30;98.70
10662;DHT22;5379;51.034;7.006;2023-11-22T11:24:14;9.40;99.10
10662;DHT22;5379;51.034;7.006;2023-11-22T11:26:47;9.50;99.10
10662;DHT22;5379;51.034;7.006;2023-11-22T11:29:31;9.20;98.70
10662;DHT22;5379;51.034;7.006;2023-11-22T11:31:58;9.10;99.30
10662;DHT22;5379;51.034;7.006;2023-11-22T11:34:25;9.00;99.00
10662;DHT22;5379;51.034;7.006;2023-11-22T11:36:53;9.00;99.10
10662;DHT22;5379;51.034;7.006;2023-11-22T11:39:25;9.10;99.50
10662;DHT22;5379;51.034;7.006;2023-11-22T11:42:07;9.10;99.60
10662;DHT22;5379;51.034;7.006;2023-11-22T11:44:35;9.70;99.90
10662;DHT22;5379;51.034;7.006;2023-11-22T11:47:09;9.20;99.80
10662;DHT22;5379;51.034;7.006;2023-11-22T11:49:37;9.30;99.30
10662;DHT22;5379;51.034;7.006;2023-11-22T11:52:04;9.30;98.20
10662;DHT22;5379;51.034;7.006;2023-11-22T11:54:31;9.20;98.40
10662;DHT22;5379;51.034;7.006;2023-11-22T11:56:58;9.10;98.80
10662;DHT22;5379;51.034;7.006;2023-11-22T11:59:26;9.20;99.40
10662;DHT22;5379;51.034;7.006;2023-11-22T12:01:55;9.30;98.70
10662;DHT22;5379;51.034;7.006;2023-11-22T12:04:23;9.20;98.20
10662;DHT22;5379;51.034;7.006;2023-11-22T12:06:50;9.10;98.20
10662;DHT22;5379;51.034;7.006;2023-11-22T12:09:22;9.20;98.90
10662;DHT22;5379;51.034;7.006;2023-11-22T12:11:51;9.20;98.50
10662;DHT22;5379;51.034;7.006;2023-11-22T12:14:18;9.30;98.10
10662;DHT22;5379;51.034;7.006;2023-11-22T12:16:46;9.30;98.80
10662;DHT22;5379;51.034;7.006;2023-11-22T12:19:22;9.20;97.90
10662;DHT22;5379;51.034;7.006;2023-11-22T12:21:50;9.20;99.30
10662;DHT22;5379;51.034;7.006;2023-11-22T12:24:17;9.20;98.90
10662;DHT22;5379;51.034;7.006;2023-11-22T12:26:45;9.20;98.40
10662;DHT22;5379;51.034;7.006;2023-11-22T12:29:14;9.10;98.00
10662;DHT22;5379;51.034;7.006;2023-11-22T12:31:45;9.20;99.30
10662;DHT22;5379;51.034;7.006;2023-11-22T12:34:14;9.10;99.00
10662;DHT22;5379;51.034;7.006;2023-11-22T12:36:42;9.00;98.90
10662;DHT22;5379;51.034;7.006;2023-11-22T12:39:09;9.10;99.30
10662;DHT22;5379;51.034;7.006;2023-11-22T12:41:43;9.10;99.30
10662;DHT22;5379;51.034;7.006;2023-11-22T12:44:10;9.20;98.20
10662;DHT22;5379;51.034;7.006;2023-11-22T12:46:47;9.20;98.70
10662;DHT22;5379;51.034;7.006;2023-11-22T12:49:17;9.20;98.80
10662;DHT22;5379;51.034;7.006;2023-11-22T12:51:54;9.30;98.00
10662;DHT22;5379;51.034;7.006;2023-11-22T12:54:22;9.30;98.60
10662;DHT22;5379;51.034;7.006;2023-11-22T12:56:49;10.90;99.90
10662;DHT22;5379;51.034;7.006;2023-11-22T12:59:19;12.30;99.90
10662;DHT22;5379;51.034;7.006;2023-11-22T13:01:46;13.70;99.90
10662;DHT22;5379;51.034;7.006;2023-11-22T13:04:13;14.20;97.00
10662;DHT22;5379;51.034;7.006;2023-11-22T13:06:40;13.40;93.50
10662;DHT22;5379;51.034;7.006;2023-11-22T13:09:09;11.30;95.90
10662;DHT22;5379;51.034;7.006;2023-11-22T13:11:41;10.20;95.90
10662;DHT22;5379;51.034;7.006;2023-11-22T13:14:08;9.70;96.70
10662;DHT22;5379;51.034;7.006;2023-11-22T13:16:35;9.40;97.70
10662;DHT22;5379;51.034;7.006;2023-11-22T13:19:04;9.40;97.70
10662;DHT22;5379;51.034;7.006;2023-11-22T13:21:31;9.30;98.00
10662;DHT22;5379;51.034;7.006;2023-11-22T13:23:58;9.30;97.70
10662;DHT22;5379;51.034;7.006;2023-11-22T13:26:26;9.30;98.10
10662;DHT22;5379;51.034;7.006;2023-11-22T13:28:53;9.30;97.90
10662;DHT22;5379;51.034;7.006;2023-11-22T13:31:21;9.20;97.10
10662;DHT22;5379;51.034;7.006;2023-11-22T13:33:48;9.20;97.00
10662;DHT22;5379;51.034;7.006;2023-11-22T13:36:16;9.20;96.70
10662;DHT22;5379;51.034;7.006;2023-11-22T13:38:43;9.20;96.80
10662;DHT22;5379;51.034;7.006;2023-11-22T13:41:09;9.20;97.40
10662;DHT22;5379;51.034;7.006;2023-11-22T13:43:38;9.20;97.20
10662;DHT22;5379;51.034;7.006;2023-11-22T13:46:05;9.30;97.90
10662;DHT22;5379;51.034;7.006;2023-11-22T13:48:35;9.40;97.50
10662;DHT22;5379;51.034;7.006;2023-11-22T13:51:02;9.30;97.30
10662;DHT22;5379;51.034;7.006;2023-11-22T13:53:29;9.40;97.20
10662;DHT22;5379;51.034;7.006;2023-11-22T13:56:00;9.30;97.00
10662;DHT22;5379;51.034;7.006;2023-11-22T13:58:33;9.40;96.70
10662;DHT22;5379;51.034;7.006;2023-11-22T14:01:01;9.50;96.60
10662;DHT22;5379;51.034;7.006;2023-11-22T14:03:31;9.40;95.70
10662;DHT22;5379;51.034;7.006;2023-11-22T14:05:58;9.40;96.10
10662;DHT22;5379;51.034;7.006;2023-11-22T14:08:25;9.30;96.00
10662;DHT22;5379;51.034;7.006;2023-11-22T14:10:52;9.30;95.60
10662;DHT22;5379;51.034;7.006;2023-11-22T14:13:19;9.30;95.60
10662;DHT22;5379;51.034;7.006;2023-11-22T14:15:46;9.30;96.00
10662;DHT22;5379;51.034;7.006;2023-11-22T14:18:13;9.40;95.90
10662;DHT22;5379;51.034;7.006;2023-11-22T14:20:40;9.30;96.00
10662;DHT22;5379;51.034;7.006;2023-11-22T14:23:07;9.50;95.60
10662;DHT22;5379;51.034;7.006;2023-11-22T14:25:34;9.30;96.00
10662;DHT22;5379;51.034;7.006;2023-11-22T14:28:00;9.30;96.50
10662;DHT22;5379;51.034;7.006;2023-11-22T14:30:27;9.30;96.60
10662;DHT22;5379;51.034;7.006;2023-11-22T14:33:03;9.20;97.00
10662;DHT22;5379;51.034;7.006;2023-11-22T14:35:33;9.30;96.90
10662;DHT22;5379;51.034;7.006;2023-11-22T14:38:02;9.30;96.80
10662;DHT22;5379;51.034;7.006;2023-11-22T14:40:31;9.10;96.40
10662;DHT22;5379;51.034;7.006;2023-11-22T14:42:58;9.10;96.80
10662;DHT22;5379;51.034;7.006;2023-11-22T14:45:28;9.10;96.60
10662;DHT22;5379;51.034;7.006;2023-11-22T14:47:55;9.10;96.60
10662;DHT22;5379;51.034;7.006;2023-11-22T14:50:22;9.00;96.90
10662;DHT22;5379;51.034;7.006;2023-11-22T14:52:54;8.90;97.30
10662;DHT22;5379;51.034;7.006;2023-11-22T14:55:21;8.80;98.10
10662;DHT22;5379;51.034;7.006;2023-11-22T14:57:50;8.80;98.30
10662;DHT22;5379;51.034;7.006;2023-11-22T15:00:19;8.70;98.20
10662;DHT22;5379;51.034;7.006;2023-11-22T15:02:46;9.90;98.30
10662;DHT22;5379;51.034;7.006;2023-11-22T15:05:17;8.70;97.20
10662;DHT22;5379;51.034;7.006;2023-11-22T15:07:44;8.80;97.00
10662;DHT22;5379;51.034;7.006;2023-11-22T15:10:13;8.80;97.90
10662;DHT22;5379;51.034;7.006;2023-11-22T15:12:40;8.80;97.40
10662;DHT22;5379;51.034;7.006;2023-11-22T15:15:08;8.80;97.30
10662;DHT22;5379;51.034;7.006;2023-11-22T15:17:35;8.90;96.80
10662;DHT22;5379;51.034;7.006;2023-11-22T15:20:04;8.90;97.10
10662;DHT22;5379;51.034;7.006;2023-11-22T15:22:34;9.00;97.20
10662;DHT22;5379;51.034;7.006;2023-11-22T15:25:01;9.00;98.20
10662;DHT22;5379;51.034;7.006;2023-11-22T15:27:29;8.90;98.80
10662;DHT22;5379;51.034;7.006;2023-11-22T15:29:56;8.80;99.60
10662;DHT22;5379;51.034;7.006;2023-11-22T15:32:23;8.80;99.90
10662;DHT22;5379;51.034;7.006;2023-11-22T15:34:50;8.70;99.90
10662;DHT22;5379;51.034;7.006;2023-11-22T15:37:17;8.80;99.90
10662;DHT22;5379;51.034;7.006;2023-11-22T15:39:44;8.70;99.90
10662;DHT22;5379;51.034;7.006;2023-11-22T15:42:10;8.70;99.90
10662;DHT22;5379;51.034;7.006;2023-11-22T15:44:39;8.80;99.90
10662;DHT22;5379;51.034;7.006;2023-11-22T15:47:06;8.70;99.90
10662;DHT22;5379;51.034;7.006;2023-11-22T15:49:34;8.60;99.90
10662;DHT22;5379;51.034;7.006;2023-11-22T15:52:00;8.60;99.90
10662;DHT22;5379;51.034;7.006;2023-11-22T15:54:27;8.60;99.90
10662;DHT22;5379;51.034;7.006;2023-11-22T15:56:54;8.70;99.90
10662;DHT22;5379;51.034;7.006;2023-11-22T15:59:21;8.70;99.90
10662;DHT22;5379;51.034;7.006;2023-11-22T16:01:50;8.70;99.90
10662;DHT22;5379;51.034;7.006;2023-11-22T16:04:16;8.60;99.90
10662;DHT22;5379;51.034;7.006;2023-11-22T16:06:43;8.70;99.90
10662;DHT22;5379;51.034;7.006;2023-11-22T16:09:12;8.70;99.90
10662;DHT22;5379;51.034;7.006;2023-11-22T16:11:40;8.50;99.90
10662;DHT22;5379;51.034;7.006;2023-11-22T16:14:07;8.50;99.90
10662;DHT22;5379;51.034;7.006;2023-11-22T16:16:35;8.40;99.90
10662;DHT22;5379;51.034;7.006;2023-11-22T16:19:05;8.50;99.90
10662;DHT22;5379;51.034;7.006;2023-11-22T16:21:32;8.60;99.90
10662;DHT22;5379;51.034;7.006;2023-11-22T16:23:59;8.50;99.90
10662;DHT22;5379;51.034;7.006;2023-11-22T16:26:26;8.60;99.90
10662;DHT22;5379;51.034;7.006;2023-11-22T16:28:53;8.50;99.90
10662;DHT22;5379;51.034;7.006;2023-11-22T16:31:20;8.40;99.90
10662;DHT22;5379;51.034;7.006;2023-11-22T16:33:47;8.40;99.90
10662;DHT22;5379;51.034;7.006;2023-11-22T16:36:15;8.40;99.90
10662;DHT22;5379;51.034;7.006;2023-11-22T16:38:46;8.30;99.90
10662;DHT22;5379;51.034;7.006;2023-11-22T16:41:14;8.30;99.90
10662;DHT22;5379;51.034;7.006;2023-11-22T16:43:40;8.40;99.90
10662;DHT22;5379;51.034;7.006;2023-11-22T16:46:07;8.40;99.90
10662;DHT22;5379;51.034;7.006;2023-11-22T16:48:34;8.30;99.90
10662;DHT22;5379;51.034;7.006;2023-11-22T16:51:01;8.30;99.90
10662;DHT22;5379;51.034;7.006;2023-11-22T16:53:29;8.40;99.90
10662;DHT22;5379;51.034;7.006;2023-11-22T16:55:56;8.30;99.90
10662;DHT22;5379;51.034;7.006;2023-11-22T16:58:23;8.30;99.90
10662;DHT22;5379;51.034;7.006;2023-11-22T17:00:50;8.30;99.90
10662;DHT22;5379;51.034;7.006;2023-11-22T17:03:17;8.40;99.90
10662;DHT22;5379;51.034;7.006;2023-11-22T17:05:43;8.40;99.90
10662;DHT22;5379;51.034;7.006;2023-11-22T17:08:12;8.30;99.90
10662;DHT22;5379;51.034;7.006;2023-11-22T17:10:40;8.30;99.90
10662;DHT22;5379;51.034;7.006;2023-11-22T17:13:07;8.30;99.90
10662;DHT22;5379;51.034;7.006;2023-11-22T17:15:36;8.20;99.90
10662;DHT22;5379;51.034;7.006;2023-11-22T17:18:05;8.10;99.90
10662;DHT22;5379;51.034;7.006;2023-11-22T17:20:32;8.10;99.90
10662;DHT22;5379;51.034;7.006;2023-11-22T17:22:58;8.10;99.90
10662;DHT22;5379;51.034;7.006;2023-11-22T17:25:26;8.20;99.90
10662;DHT22;5379;51.034;7.006;2023-11-22T17:27:54;8.10;99.90
10662;DHT22;5379;51.034;7.006;2023-11-22T17:30:21;8.10;99.90
10662;DHT22;5379;51.034;7.006;2023-11-22T17:32:49;8.10;99.90
10662;DHT22;5379;51.034;7.006;2023-11-22T17:35:16;8.20;99.90
10662;DHT22;5379;51.034;7.006;2023-11-22T17:37:42;8.20;99.90
10662;DHT22;5379;51.034;7.006;2023-11-22T17:40:10;8.10;99.90
10662;DHT22;5379;51.034;7.006;2023-11-22T17:42:38;8.10;99.90
10662;DHT22;5379;51.034;7.006;2023-11-22T17:45:07;8.20;99.50
10662;DHT22;5379;51.034;7.006;2023-11-22T17:47:35;8.20;99.50
10662;DHT22;5379;51.034;7.006;2023-11-22T17:50:03;8.30;99.30
10662;DHT22;5379;51.034;7.006;2023-11-22T17:52:30;8.20;99.70
10662;DHT22;5379;51.034;7.006;2023-11-22T17:54:58;8.30;99.90
10662;DHT22;5379;51.034;7.006;2023-11-22T17:57:25;8.30;99.40
10662;DHT22;5379;51.034;7.006;2023-11-22T17:59:52;8.30;99.90
10662;DHT22;5379;51.034;7.006;2023-11-22T18:02:21;8.20;99.60
10662;DHT22;5379;51.034;7.006;2023-11-22T18:04:48;8.20;99.60
10662;DHT22;5379;51.034;7.006;2023-11-22T18:07:15;8.20;99.50
10662;DHT22;5379;51.034;7.006;2023-11-22T18:09:42;8.30;99.20
10662;DHT22;5379;51.034;7.006;2023-11-22T18:12:08;8.30;99.20
10662;DHT22;5379;51.034;7.006;2023-11-22T18:14:36;8.40;99.50
10662;DHT22;5379;51.034;7.006;2023-11-22T18:17:03;8.40;98.90
10662;DHT22;5379;51.034;7.006;2023-11-22T18:19:31;8.50;99.90
10662;DHT22;5379;51.034;7.006;2023-11-22T18:24:26;8.40;99.20
10662;DHT22;5379;51.034;7.006;2023-11-22T18:26:54;8.40;99.70
10662;DHT22;5379;51.034;7.006;2023-11-22T18:29:22;8.50;99.70
10662;DHT22;5379;51.034;7.006;2023-11-22T18:31:52;8.50;99.40
10662;DHT22;5379;51.034;7.006;2023-11-22T18:34:20;8.50;99.60
10662;DHT22;5379;51.034;7.006;2023-11-22T18:36:48;8.50;99.70
10662;DHT22;5379;51.034;7.006;2023-11-22T18:39:15;8.50;99.70
10662;DHT22;5379;51.034;7.006;2023-11-22T18:41:42;8.40;99.50
10662;DHT22;5379;51.034;7.006;2023-11-22T18:44:09;8.40;99.70
10662;DHT22;5379;51.034;7.006;2023-11-22T18:46:36;12.00;99.90
10662;DHT22;5379;51.034;7.006;2023-11-22T18:49:03;8.30;99.90
10662;DHT22;5379;51.034;7.006;2023-11-22T18:51:30;8.30;99.90
10662;DHT22;5379;51.034;7.006;2023-11-22T18:53:58;8.30;99.90
10662;DHT22;5379;51.034;7.006;2023-11-22T18:56:25;8.20;99.90
10662;DHT22;5379;51.034;7.006;2023-11-22T18:58:52;8.30;99.90
10662;DHT22;5379;51.034;7.006;2023-11-22T19:01:19;8.20;99.90
10662;DHT22;5379;51.034;7.006;2023-11-22T19:03:46;8.20;99.90
10662;DHT22;5379;51.034;7.006;2023-11-22T19:06:14;8.10;99.90
10662;DHT22;5379;51.034;7.006;2023-11-22T19:11:10;8.10;99.90
10662;DHT22;5379;51.034;7.006;2023-11-22T19:13:37;8.20;99.90
10662;DHT22;5379;51.034;7.006;2023-11-22T19:16:04;8.00;99.90
10662;DHT22;5379;51.034;7.006;2023-11-22T19:18:32;8.10;99.90
10662;DHT22;5379;51.034;7.006;2023-11-22T19:20:59;8.00;99.90
10662;DHT22;5379;51.034;7.006;2023-11-22T19:23:28;8.10;99.90
10662;DHT22;5379;51.034;7.006;2023-11-22T19:25:55;8.00;99.90
10662;DHT22;5379;51.034;7.006;2023-11-22T19:28:26;8.00;99.90
10662;DHT22;5379;51.034;7.006;2023-11-22T19:30:53;7.90;99.90
10662;DHT22;5379;51.034;7.006;2023-11-22T19:33:20;7.90;99.90
10662;DHT22;5379;51.034;7.006;2023-11-22T19:35:47;7.90;99.90
10662;DHT22;5379;51.034;7.006;2023-11-22T19:38:14;7.80;99.90
10662;DHT22;5379;51.034;7.006;2023-11-22T19:40:41;7.80;99.90
10662;DHT22;5379;51.034;7.006;2023-11-22T19:43:10;7.80;99.90
10662;DHT22;5379;51.034;7.006;2023-11-22T19:45:39;8.00;99.90
10662;DHT22;5379;51.034;7.006;2023-11-22T19:50:33;8.00;99.90
10662;DHT22;5379;51.034;7.006;2023-11-22T19:53:00;7.90;99.90
10662;DHT22;5379;51.034;7.006;2023-11-22T19:55:28;7.90;99.90
10662;DHT22;5379;51.034;7.006;2023-11-22T19:57:56;7.90;99.90
10662;DHT22;5379;51.034;7.006;2023-11-22T20:00:24;7.90;99.90
10662;DHT22;5379;51.034;7.006;2023-11-22T20:02:52;7.90;99.90
10662;DHT22;5379;51.034;7.006;2023-11-22T20:05:19;7.90;99.90
10662;DHT22;5379;51.034;7.006;2023-11-22T20:07:46;8.00;99.90
10662;DHT22;5379;51.034;7.006;2023-11-22T20:10:13;7.90;99.90
10662;DHT22;5379;51.034;7.006;2023-11-22T20:12:40;7.80;99.90
10662;DHT22;5379;51.034;7.006;2023-11-22T20:15:08;7.80;99.90
10662;DHT22;5379;51.034;7.006;2023-11-22T20:17:35;7.70;99.90
10662;DHT22;5379;51.034;7.006;2023-11-22T20:20:04;7.70;99.90
10662;DHT22;5379;51.034;7.006;2023-11-22T20:22:32;7.70;99.90
10662;DHT22;5379;51.034;7.006;2023-11-22T20:24:59;7.70;99.90
10662;DHT22;5379;51.034;7.006;2023-11-22T20:27:25;7.70;99.90
10662;DHT22;5379;51.034;7.006;2023-11-22T20:29:53;8.00;99.90
10662;DHT22;5379;51.034;7.006;2023-11-22T20:32:20;8.00;99.90
10662;DHT22;5379;51.034;7.006;2023-11-22T20:34:49;8.20;99.90
10662;DHT22;5379;51.034;7.006;2023-11-22T20:37:17;7.80;99.90
10662;DHT22;5379;51.034;7.006;2023-11-22T20:39:44;7.70;99.90
10662;DHT22;5379;51.034;7.006;2023-11-22T20:42:11;7.70;99.90
10662;DHT22;5379;51.034;7.006;2023-11-22T20:44:38;7.80;99.90
10662;DHT22;5379;51.034;7.006;2023-11-22T20:47:05;8.00;99.90
10662;DHT22;5379;51.034;7.006;2023-11-22T20:49:32;7.90;99.90
10662;DHT22;5379;51.034;7.006;2023-11-22T20:51:59;7.90;99.90
10662;DHT22;5379;51.034;7.006;2023-11-22T20:54:27;7.90;99.90
10662;DHT22;5379;51.034;7.006;2023-11-22T20:56:54;7.80;99.90
10662;DHT22;5379;51.034;7.006;2023-11-22T20:59:20;7.70;99.90
10662;DHT22;5379;51.034;7.006;2023-11-22T21:01:47;7.80;99.90
10662;DHT22;5379;51.034;7.006;2023-11-22T21:04:14;7.80;99.90
10662;DHT22;5379;51.034;7.006;2023-11-22T21:06:42;7.90;99.90
10662;DHT22;5379;51.034;7.006;2023-11-22T21:09:09;7.80;99.90
10662;DHT22;5379;51.034;7.006;2023-11-22T21:11:39;7.80;99.90
10662;DHT22;5379;51.034;7.006;2023-11-22T21:14:06;7.70;99.90
10662;DHT22;5379;51.034;7.006;2023-11-22T21:16:33;7.70;99.90
10662;DHT22;5379;51.034;7.006;2023-11-22T21:19:00;7.70;99.90
10662;DHT22;5379;51.034;7.006;2023-11-22T21:21:27;7.70;99.90
10662;DHT22;5379;51.034;7.006;2023-11-22T21:23:55;7.90;99.90
10662;DHT22;5379;51.034;7.006;2023-11-22T21:26:22;7.50;99.90
10662;DHT22;5379;51.034;7.006;2023-11-22T21:28:51;7.60;99.90
10662;DHT22;5379;51.034;7.006;2023-11-22T21:31:18;7.60;99.90
10662;DHT22;5379;51.034;7.006;2023-11-22T21:33:46;7.60;99.90
10662;DHT22;5379;51.034;7.006;2023-11-22T21:36:13;7.60;99.90
10662;DHT22;5379;51.034;7.006;2023-11-22T21:38:41;7.60;99.90
10662;DHT22;5379;51.034;7.006;2023-11-22T21:41:08;7.60;99.90